Exton, United Kingdom
Current Conditions -  °F | °C
As of 1:50 PM on Monday 26 Jan 2015 (Local Time) from EGDX Reporting Station
Broken Clouds Broken Clouds  
Wind Chill: 41°   Ceiling: 3200
Heat Index: 46°   Visibility: 6mi
Dew Point: 36°   Wind: 10mph
Humidity: 66%   Direction: 300°WNW
Pressure: 30.3"   Gusts: NA
Location:  51.15°N, 3.5°W
Report Text: EGDX 261350Z 30009KT 9999 BKN032 08/02 Q1026 BLU
Loading
Personal Weather Stations






























Interactive Weather Map New forecast layout! Learn more

10-Day Weather Forecast

Advertisements
Track Severe Weather on mobile